Terminal Aerodrome Forecast
Issued by NWS Cleveland, OH

Home | Current Version | Previous Version | Graphics & Text | Print | Product List | Glossary On
Versions: 1 2 3 4 5 6 7 8 9 10 11 12 13 14 15 16 17
335
FTUS41 KCLE 160529
TAFYNG
TAF
KYNG 160529Z 1606/1706 00000KT P6SM FEW250
     FM161000 00000KT 4SM BR FEW250
     FM161400 VRB03KT P6SM SCT050
     FM162100 36004KT P6SM SCT200
     FM170200 06004KT P6SM FEW250=

USA.gov is the U.S. government's official web portal to all federal, state and local government web resources and services.